createdAt,value
2024-04-25T00:00:53.070Z,100.00
2024-04-25T00:03:20.475Z,100.00
2024-04-25T00:05:48.047Z,100.00
2024-04-25T00:08:15.420Z,100.00
2024-04-25T00:10:42.959Z,100.00
2024-04-25T00:13:10.368Z,100.00
2024-04-25T00:15:37.799Z,100.00
2024-04-25T00:18:05.491Z,100.00
2024-04-25T00:20:32.843Z,100.00
2024-04-25T00:23:00.134Z,100.00
2024-04-25T00:25:27.501Z,100.00
2024-04-25T00:27:55.713Z,100.00
2024-04-25T00:30:23.240Z,100.00
2024-04-25T00:32:53.789Z,100.00
2024-04-25T00:35:21.270Z,100.00
2024-04-25T00:37:48.758Z,100.00
2024-04-25T00:40:16.192Z,100.00
2024-04-25T00:42:43.494Z,100.00
2024-04-25T00:45:10.911Z,100.00
2024-04-25T00:47:39.013Z,100.00
2024-04-25T00:50:06.947Z,100.00
2024-04-25T00:52:34.518Z,100.00
2024-04-25T00:55:05.871Z,100.00
2024-04-25T00:57:35.479Z,100.00
2024-04-25T01:00:03.378Z,100.00
2024-04-25T01:02:31.610Z,100.00
2024-04-25T01:05:01.468Z,100.00
2024-04-25T01:07:28.756Z,100.00
2024-04-25T01:09:57.710Z,100.00
2024-04-25T01:12:26.280Z,100.00
2024-04-25T01:14:54.036Z,100.00
2024-04-25T01:17:21.353Z,100.00
2024-04-25T01:19:48.850Z,100.00
2024-04-25T01:22:16.366Z,100.00
2024-04-25T01:24:43.568Z,100.00
2024-04-25T01:27:11.078Z,100.00
2024-04-25T01:29:38.624Z,100.00
2024-04-25T01:32:07.421Z,100.00
2024-04-25T01:34:35.005Z,100.00
2024-04-25T01:37:02.301Z,100.00
2024-04-25T01:39:30.120Z,100.00
2024-04-25T01:41:57.396Z,100.00
2024-04-25T01:44:24.930Z,100.00
2024-04-25T01:46:56.219Z,100.00
2024-04-25T01:49:23.644Z,100.00
2024-04-25T01:51:50.914Z,100.00
2024-04-25T01:54:18.293Z,100.00
2024-04-25T01:56:45.585Z,100.00
2024-04-25T01:59:12.921Z,100.00
2024-04-25T02:01:40.191Z,100.00
2024-04-25T02:04:07.530Z,100.00
2024-04-25T02:06:34.921Z,100.00
2024-04-25T02:09:02.276Z,100.00
2024-04-25T02:11:31.644Z,100.00
2024-04-25T02:13:58.917Z,100.00
2024-04-25T02:16:26.203Z,100.00
2024-04-25T02:18:53.701Z,100.00
2024-04-25T02:21:39.558Z,100.00
2024-04-25T02:24:25.568Z,100.00
2024-04-25T02:26:52.690Z,100.00
2024-04-25T02:29:19.926Z,100.00
2024-04-25T02:31:47.457Z,100.00
2024-04-25T02:34:14.759Z,100.00
2024-04-25T02:36:41.956Z,100.00
2024-04-25T02:39:10.679Z,100.00
2024-04-25T02:41:38.082Z,100.00
2024-04-25T02:44:05.687Z,100.00
2024-04-25T02:46:33.018Z,100.00
2024-04-25T02:49:00.476Z,100.00
2024-04-25T02:51:29.204Z,100.00
2024-04-25T02:53:56.530Z,100.00
2024-04-25T02:56:23.965Z,100.00
2024-04-25T02:58:51.330Z,100.00
2024-04-25T03:01:18.510Z,100.00
2024-04-25T03:03:45.843Z,100.00
2024-04-25T03:06:13.475Z,100.00
2024-04-25T03:08:40.971Z,100.00
2024-04-25T03:11:08.416Z,100.00
2024-04-25T03:13:38.790Z,100.00
2024-04-25T03:16:08.280Z,100.00
2024-04-25T03:18:36.005Z,100.00
2024-04-25T03:21:07.720Z,100.00
2024-04-25T03:23:37.657Z,100.00
2024-04-25T03:26:06.059Z,100.00
2024-04-25T03:28:34.437Z,100.00
2024-04-25T03:31:02.800Z,100.00
2024-04-25T03:33:30.433Z,100.00
2024-04-25T03:35:57.891Z,100.00
2024-04-25T03:38:25.261Z,100.00
2024-04-25T03:40:52.672Z,100.00
2024-04-25T03:43:20.036Z,100.00
2024-04-25T03:45:47.402Z,100.00
2024-04-25T03:48:14.865Z,100.00
2024-04-25T03:50:42.559Z,100.00
2024-04-25T03:53:13.512Z,100.00
2024-04-25T03:55:43.072Z,100.00
2024-04-25T03:58:10.364Z,100.00
2024-04-25T04:00:37.793Z,100.00
2024-04-25T04:03:05.516Z,100.00
2024-04-25T04:05:33.038Z,100.00
2024-04-25T04:08:00.519Z,100.00
2024-04-25T04:10:27.939Z,100.00
2024-04-25T04:12:55.250Z,100.00
2024-04-25T04:15:22.829Z,100.00
2024-04-25T04:17:52.863Z,100.00
2024-04-25T04:20:20.146Z,100.00
2024-04-25T04:22:47.637Z,100.00
2024-04-25T04:25:14.911Z,100.00
2024-04-25T04:27:42.196Z,100.00
2024-04-25T04:30:09.807Z,100.00
2024-04-25T04:32:37.212Z,100.00
2024-04-25T04:35:05.438Z,100.00
2024-04-25T04:37:32.927Z,100.00
2024-04-25T04:40:00.437Z,100.00
2024-04-25T04:42:27.898Z,100.00
2024-04-25T04:44:55.157Z,100.00
2024-04-25T04:47:22.636Z,100.00
2024-04-25T04:49:50.204Z,100.00
2024-04-25T04:52:20.027Z,100.00
2024-04-25T04:54:47.393Z,100.00
2024-04-25T04:57:14.755Z,100.00
2024-04-25T04:59:42.138Z,100.00
2024-04-25T05:02:09.705Z,100.00
2024-04-25T05:04:37.234Z,100.00
2024-04-25T05:07:05.314Z,100.00
2024-04-25T05:09:32.844Z,100.00
2024-04-25T05:12:00.344Z,100.00
2024-04-25T05:14:27.911Z,100.00
2024-04-25T05:16:55.317Z,100.00
2024-04-25T05:19:24.776Z,100.00
2024-04-25T05:21:55.879Z,100.00
2024-04-25T05:24:23.314Z,100.00
2024-04-25T05:26:50.687Z,100.00
2024-04-25T05:29:18.108Z,100.00
2024-04-25T05:31:45.569Z,100.00
2024-04-25T05:34:12.873Z,100.00
2024-04-25T05:36:40.281Z,100.00
2024-04-25T05:39:07.710Z,100.00
2024-04-25T05:41:35.176Z,100.00
2024-04-25T05:44:02.514Z,100.00
2024-04-25T05:46:29.795Z,100.00
2024-04-25T05:48:57.226Z,100.00
2024-04-25T05:51:24.674Z,100.00
2024-04-25T05:53:52.087Z,100.00
2024-04-25T05:56:19.492Z,100.00
2024-04-25T05:58:50.202Z,100.00
2024-04-25T06:01:19.486Z,100.00
2024-04-25T06:03:47.414Z,100.00
2024-04-25T06:06:14.995Z,100.00
2024-04-25T06:08:42.416Z,100.00
2024-04-25T06:11:13.061Z,100.00
2024-04-25T06:13:42.916Z,100.00
2024-04-25T06:16:11.231Z,100.00
2024-04-25T06:18:38.656Z,100.00
2024-04-25T06:21:06.202Z,100.00
2024-04-25T06:23:34.278Z,100.00
2024-04-25T06:26:01.710Z,100.00
2024-04-25T06:28:29.084Z,100.00
2024-04-25T06:31:01.330Z,100.00
2024-04-25T06:33:29.090Z,100.00
2024-04-25T06:35:56.495Z,100.00
2024-04-25T06:38:24.067Z,100.00
2024-04-25T06:40:55.142Z,100.00
2024-04-25T06:43:22.683Z,100.00
2024-04-25T06:45:49.874Z,100.00
2024-04-25T06:48:17.401Z,100.00
2024-04-25T06:50:44.985Z,100.00
2024-04-25T06:53:14.000Z,100.00
2024-04-25T06:55:41.480Z,100.00
2024-04-25T06:58:09.158Z,100.00
2024-04-25T07:00:37.875Z,100.00
2024-04-25T07:03:05.618Z,100.00
2024-04-25T07:05:33.084Z,100.00
2024-04-25T07:08:00.461Z,100.00
2024-04-25T07:10:27.880Z,100.00
2024-04-25T07:12:55.235Z,100.00
2024-04-25T07:15:25.881Z,100.00
2024-04-25T07:17:56.890Z,100.00
2024-04-25T07:20:24.217Z,100.00
2024-04-25T07:22:51.636Z,100.00
2024-04-25T07:25:18.961Z,100.00
2024-04-25T07:27:46.443Z,100.00
2024-04-25T07:30:13.812Z,100.00
2024-04-25T07:32:41.760Z,100.00
2024-04-25T07:35:09.371Z,100.00
2024-04-25T07:37:38.196Z,100.00
2024-04-25T07:40:06.674Z,100.00
2024-04-25T07:42:34.032Z,100.00
2024-04-25T07:45:03.150Z,100.00
2024-04-25T07:47:30.815Z,100.00
2024-04-25T07:49:59.479Z,100.00
2024-04-25T07:52:29.842Z,100.00
2024-04-25T07:54:57.499Z,100.00
2024-04-25T07:57:24.919Z,100.00
2024-04-25T07:59:55.077Z,100.00
2024-04-25T08:02:23.632Z,100.00
2024-04-25T08:04:51.508Z,100.00
2024-04-25T08:07:18.959Z,100.00
2024-04-25T08:09:46.368Z,95.54
2024-04-25T08:12:14.864Z,100.00
2024-04-25T08:14:45.901Z,96.54
2024-04-25T08:17:13.448Z,88.21
2024-04-25T08:19:40.857Z,91.51
2024-04-25T08:22:08.113Z,82.55
2024-04-25T08:24:35.476Z,84.14
2024-04-25T08:27:02.832Z,85.82
2024-04-25T08:29:30.190Z,71.42
2024-04-25T08:31:57.646Z,74.79
2024-04-25T08:34:25.149Z,77.61
2024-04-25T08:36:52.677Z,70.02
2024-04-25T08:39:20.063Z,66.85
2024-04-25T08:41:49.887Z,70.50
2024-04-25T08:44:17.977Z,63.75
2024-04-25T08:46:49.351Z,75.53
2024-04-25T08:49:18.044Z,77.65
2024-04-25T08:51:47.237Z,71.16
2024-04-25T08:54:19.554Z,58.94
2024-04-25T08:56:46.968Z,64.29
2024-04-25T08:59:14.237Z,71.36
2024-04-25T09:01:44.672Z,58.37
2024-04-25T09:04:18.119Z,68.23
2024-04-25T09:06:47.159Z,56.58
2024-04-25T09:09:14.414Z,55.26
2024-04-25T09:11:42.219Z,60.08
2024-04-25T09:14:11.641Z,55.67
2024-04-25T09:16:39.386Z,52.10
2024-04-25T09:19:08.828Z,58.40
2024-04-25T09:21:37.971Z,50.79
2024-04-25T09:24:05.572Z,52.98
2024-04-25T09:26:34.943Z,49.83
2024-04-25T09:29:03.155Z,52.49
2024-04-25T09:31:33.091Z,52.00
2024-04-25T09:34:00.613Z,56.78
2024-04-25T09:36:29.724Z,48.77
2024-04-25T09:38:57.316Z,49.43
2024-04-25T09:41:31.659Z,50.39
2024-04-25T09:43:59.399Z,50.90
2024-04-25T09:46:39.939Z,44.40
2024-04-25T09:49:11.743Z,43.91
2024-04-25T09:51:47.734Z,44.83
2024-04-25T09:54:27.509Z,46.09
2024-04-25T09:57:11.186Z,43.79
2024-04-25T09:59:42.303Z,46.66
2024-04-25T10:02:18.675Z,38.29
2024-04-25T10:04:47.495Z,36.74
2024-04-25T10:07:18.920Z,41.35
2024-04-25T10:09:49.908Z,43.68
2024-04-25T10:12:25.307Z,42.56
2024-04-25T10:15:04.820Z,45.21
2024-04-25T10:17:36.358Z,38.13
2024-04-25T10:20:06.596Z,35.82
2024-04-25T10:22:38.643Z,41.01
2024-04-25T10:25:16.689Z,42.52
2024-04-25T10:27:58.615Z,41.74
2024-04-25T10:30:27.493Z,38.97
2024-04-25T10:32:55.800Z,40.25
2024-04-25T10:35:24.244Z,42.83
2024-04-25T10:37:52.457Z,36.93
2024-04-25T10:40:21.611Z,40.04
2024-04-25T10:43:04.088Z,40.32
2024-04-25T10:45:34.783Z,41.21
2024-04-25T10:48:02.472Z,36.95
2024-04-25T10:50:31.481Z,38.96
2024-04-25T10:52:59.191Z,40.43
2024-04-25T10:55:26.606Z,42.32
2024-04-25T10:57:55.740Z,43.97
2024-04-25T11:00:25.044Z,40.36
2024-04-25T11:02:52.607Z,39.92
2024-04-25T11:05:20.092Z,40.34
2024-04-25T11:07:47.663Z,36.39
2024-04-25T11:10:17.731Z,40.73
2024-04-25T11:12:46.196Z,42.37
2024-04-25T11:15:17.959Z,42.28
2024-04-25T11:17:56.409Z,40.90
2024-04-25T11:20:36.888Z,42.16
2024-04-25T11:23:17.912Z,40.84
2024-04-25T11:25:49.983Z,42.66
2024-04-25T11:28:19.969Z,46.80
2024-04-25T11:30:48.117Z,46.03
2024-04-25T11:33:21.968Z,48.35
2024-04-25T11:35:49.799Z,49.53
2024-04-25T11:38:17.756Z,46.63
2024-04-25T11:40:46.853Z,45.95
2024-04-25T11:43:15.665Z,46.15
2024-04-25T11:45:47.272Z,46.54
2024-04-25T11:48:19.782Z,47.20
2024-04-25T11:50:48.033Z,49.17
2024-04-25T11:53:15.768Z,50.16
2024-04-25T11:55:43.765Z,50.40
2024-04-25T11:58:11.583Z,52.90
2024-04-25T12:00:39.604Z,48.40
2024-04-25T12:03:07.363Z,43.52
2024-04-25T12:05:35.011Z,47.60
2024-04-25T12:08:05.269Z,47.42
2024-04-25T12:10:33.016Z,47.86
2024-04-25T12:13:00.576Z,49.95
2024-04-25T12:15:28.007Z,47.35
2024-04-25T12:17:55.647Z,45.86
2024-04-25T12:20:23.067Z,48.57
2024-04-25T12:22:52.691Z,45.99
2024-04-25T12:25:20.063Z,42.38
2024-04-25T12:27:47.577Z,43.76
2024-04-25T12:30:14.873Z,41.68
2024-04-25T12:32:42.463Z,40.57
2024-04-25T12:35:09.860Z,42.46
2024-04-25T12:37:37.226Z,39.27
2024-04-25T12:40:04.820Z,37.47
2024-04-25T12:42:32.182Z,37.58
2024-04-25T12:44:59.609Z,42.24
2024-04-25T12:47:27.234Z,38.84
2024-04-25T12:49:54.591Z,39.13
2024-04-25T12:52:22.032Z,44.73
2024-04-25T12:54:49.321Z,40.52
2024-04-25T12:57:22.087Z,38.57
2024-04-25T12:59:51.812Z,39.72
2024-04-25T13:02:19.507Z,37.54
2024-04-25T13:04:46.925Z,42.30
2024-04-25T13:07:14.594Z,43.21
2024-04-25T13:09:41.959Z,46.65
2024-04-25T13:12:09.551Z,44.66
2024-04-25T13:14:37.088Z,40.05
2024-04-25T13:17:04.683Z,41.42
2024-04-25T13:19:31.898Z,43.42
2024-04-25T13:21:59.309Z,43.02
2024-04-25T13:24:26.596Z,41.33
2024-04-25T13:26:53.973Z,41.04
2024-04-25T13:29:21.239Z,43.31
2024-04-25T13:31:48.593Z,43.30
2024-04-25T13:34:17.742Z,41.96
2024-04-25T13:36:45.160Z,42.33
2024-04-25T13:39:12.511Z,41.16
2024-04-25T13:41:39.980Z,40.88
2024-04-25T13:44:07.400Z,39.18
2024-04-25T13:46:35.568Z,41.11
2024-04-25T13:49:04.101Z,41.32
2024-04-25T13:51:31.810Z,42.50
2024-04-25T13:54:00.571Z,43.05
2024-04-25T13:56:28.382Z,44.80
2024-04-25T13:58:55.689Z,46.32
2024-04-25T14:01:23.042Z,45.35
2024-04-25T14:03:50.448Z,45.99
2024-04-25T14:06:17.933Z,45.26
2024-04-25T14:08:45.353Z,43.31
2024-04-25T14:11:17.319Z,40.95
2024-04-25T14:13:44.820Z,45.05
2024-04-25T14:16:12.632Z,46.22
2024-04-25T14:18:40.484Z,47.00
2024-04-25T14:21:07.858Z,47.94
2024-04-25T14:23:35.304Z,45.58
2024-04-25T14:26:21.271Z,62.15
2024-04-25T14:28:54.183Z,72.22
2024-04-25T14:31:21.625Z,53.05
2024-04-25T14:33:49.670Z,50.57
2024-04-25T14:36:20.613Z,48.82
2024-04-25T14:38:48.543Z,44.61
2024-04-25T14:41:16.790Z,47.97
2024-04-25T14:43:47.064Z,49.55
2024-04-25T14:46:16.334Z,49.58
2024-04-25T14:48:44.627Z,50.57
2024-04-25T14:51:12.850Z,47.26
2024-04-25T14:53:40.993Z,50.02
2024-04-25T14:56:08.464Z,53.72
2024-04-25T14:58:36.883Z,52.57
2024-04-25T15:01:06.013Z,55.20
2024-04-25T15:03:34.861Z,54.55
2024-04-25T15:06:02.318Z,65.57
2024-04-25T15:08:30.837Z,62.14
2024-04-25T15:10:59.455Z,62.71
2024-04-25T15:13:27.685Z,61.70
2024-04-25T15:15:59.673Z,62.39
2024-04-25T15:18:29.248Z,58.32
2024-04-25T15:20:56.709Z,57.66
2024-04-25T15:23:25.706Z,62.20
2024-04-25T15:25:53.133Z,62.03
2024-04-25T15:28:20.485Z,71.35
2024-04-25T15:30:47.758Z,69.76
2024-04-25T15:33:15.930Z,66.23
2024-04-25T15:35:44.059Z,65.18
2024-04-25T15:38:11.519Z,66.53
2024-04-25T15:40:39.762Z,66.07
2024-04-25T15:43:07.452Z,68.11
2024-04-25T15:45:34.645Z,74.45
2024-04-25T15:48:02.139Z,68.04
2024-04-25T15:50:30.115Z,65.31
2024-04-25T15:52:57.466Z,73.54
2024-04-25T15:55:25.715Z,74.78
2024-04-25T15:57:56.088Z,70.56
2024-04-25T16:00:24.202Z,73.44
2024-04-25T16:02:51.911Z,77.38
2024-04-25T16:05:19.820Z,71.34
2024-04-25T16:07:47.258Z,75.04
2024-04-25T16:10:14.760Z,72.22
2024-04-25T16:12:42.199Z,74.99
2024-04-25T16:15:09.457Z,76.62
2024-04-25T16:17:36.949Z,73.60
2024-04-25T16:20:05.986Z,75.00
2024-04-25T16:22:33.356Z,80.38
2024-04-25T16:25:01.273Z,83.18
2024-04-25T16:27:29.381Z,88.82
2024-04-25T16:29:57.099Z,82.30
2024-04-25T16:32:24.537Z,79.22
2024-04-25T16:34:52.311Z,83.10
2024-04-25T16:37:21.109Z,91.77
2024-04-25T16:39:49.488Z,92.77
2024-04-25T16:42:17.119Z,90.57
2024-04-25T16:44:44.516Z,93.59
2024-04-25T16:47:14.186Z,93.78
2024-04-25T16:49:41.604Z,97.66
2024-04-25T16:52:10.562Z,93.46
2024-04-25T16:54:40.033Z,99.16
2024-04-25T16:57:09.264Z,100.00
2024-04-25T16:59:38.595Z,99.93
2024-04-25T17:02:08.840Z,100.00
2024-04-25T17:04:41.710Z,100.00
2024-04-25T17:07:11.583Z,100.00
2024-04-25T17:09:41.744Z,100.00
2024-04-25T17:12:11.883Z,100.00
2024-04-25T17:14:40.652Z,100.00
2024-04-25T17:17:10.864Z,100.00
2024-04-25T17:19:39.896Z,100.00
2024-04-25T17:22:12.476Z,100.00
2024-04-25T17:24:46.414Z,100.00
2024-04-25T17:27:16.691Z,100.00
2024-04-25T17:29:45.565Z,100.00
2024-04-25T17:32:14.084Z,100.00
2024-04-25T17:34:44.488Z,100.00
2024-04-25T17:37:15.223Z,100.00
2024-04-25T17:39:51.449Z,100.00
2024-04-25T17:42:21.610Z,100.00
2024-04-25T17:44:59.015Z,100.00
2024-04-25T17:47:31.110Z,100.00
2024-04-25T17:50:06.968Z,100.00
2024-04-25T17:52:39.551Z,100.00
2024-04-25T17:55:08.318Z,100.00
2024-04-25T17:57:35.661Z,100.00
2024-04-25T18:00:03.401Z,100.00
2024-04-25T18:02:36.884Z,100.00
2024-04-25T18:05:14.368Z,100.00
2024-04-25T18:07:45.991Z,100.00
2024-04-25T18:10:19.828Z,100.00
2024-04-25T18:12:49.582Z,100.00
2024-04-25T18:15:21.875Z,100.00
2024-04-25T18:17:54.579Z,100.00
2024-04-25T18:20:23.931Z,100.00
2024-04-25T18:22:51.431Z,100.00
2024-04-25T18:25:20.074Z,100.00
2024-04-25T18:27:47.584Z,100.00
2024-04-25T18:30:16.781Z,100.00
2024-04-25T18:32:46.948Z,100.00
2024-04-25T18:35:15.417Z,100.00
2024-04-25T18:37:47.823Z,100.00
2024-04-25T18:40:15.815Z,100.00
2024-04-25T18:42:45.286Z,100.00
2024-04-25T18:45:12.945Z,100.00
2024-04-25T18:47:40.233Z,100.00
2024-04-25T18:50:09.788Z,100.00
2024-04-25T18:52:37.500Z,100.00
2024-04-25T18:55:05.188Z,100.00
2024-04-25T18:57:35.084Z,100.00
2024-04-25T19:00:05.262Z,100.00
2024-04-25T19:02:34.818Z,100.00
2024-04-25T19:05:02.239Z,100.00
2024-04-25T19:07:35.182Z,100.00
2024-04-25T19:10:02.218Z,100.00
2024-04-25T19:12:35.138Z,100.00
2024-04-25T19:15:03.539Z,100.00
2024-04-25T19:17:32.042Z,100.00
2024-04-25T19:19:59.433Z,100.00
2024-04-25T19:22:35.859Z,100.00
2024-04-25T19:25:05.146Z,100.00
2024-04-25T19:27:35.498Z,100.00
2024-04-25T19:30:03.257Z,100.00
2024-04-25T19:32:33.426Z,100.00
2024-04-25T19:35:02.327Z,100.00
2024-04-25T19:37:30.953Z,100.00
2024-04-25T19:39:58.635Z,100.00
2024-04-25T19:42:28.545Z,100.00
2024-04-25T19:44:59.432Z,100.00
2024-04-25T19:47:28.996Z,100.00
2024-04-25T19:49:59.382Z,100.00
2024-04-25T19:52:29.349Z,100.00
2024-04-25T19:54:56.701Z,100.00
2024-04-25T19:57:24.935Z,100.00
2024-04-25T19:59:52.846Z,100.00
2024-04-25T20:02:20.592Z,100.00
2024-04-25T20:04:49.390Z,100.00
2024-04-25T20:07:20.898Z,100.00
2024-04-25T20:09:51.789Z,100.00
2024-04-25T20:12:23.780Z,100.00
2024-04-25T20:14:55.868Z,100.00
2024-04-25T20:17:48.012Z,100.00
2024-04-25T20:20:36.204Z,100.00
2024-04-25T20:23:07.012Z,100.00
2024-04-25T20:25:37.905Z,100.00
2024-04-25T20:28:07.743Z,100.00
2024-04-25T20:30:35.506Z,100.00
2024-04-25T20:33:05.782Z,100.00
2024-04-25T20:35:34.987Z,100.00
2024-04-25T20:38:02.219Z,100.00
2024-04-25T20:40:31.342Z,100.00
2024-04-25T20:42:59.737Z,100.00
2024-04-25T20:45:29.990Z,100.00
2024-04-25T20:47:58.051Z,100.00
2024-04-25T20:50:25.296Z,100.00
2024-04-25T20:52:54.539Z,100.00
2024-04-25T20:55:23.183Z,100.00
2024-04-25T20:57:50.781Z,100.00
2024-04-25T21:00:18.619Z,100.00
2024-04-25T21:02:49.723Z,100.00
2024-04-25T21:05:22.100Z,100.00
2024-04-25T21:07:50.599Z,100.00
2024-04-25T21:10:20.384Z,100.00
2024-04-25T21:12:48.308Z,100.00
2024-04-25T21:15:16.873Z,100.00
2024-04-25T21:17:46.124Z,100.00
2024-04-25T21:20:13.987Z,100.00
2024-04-25T21:22:43.156Z,100.00
2024-04-25T21:25:11.586Z,100.00
2024-04-25T21:27:39.508Z,100.00
2024-04-25T21:30:07.809Z,100.00
2024-04-25T21:32:42.896Z,100.00
2024-04-25T21:35:13.350Z,100.00
2024-04-25T21:37:40.473Z,100.00
2024-04-25T21:40:08.222Z,100.00
2024-04-25T21:42:35.780Z,100.00
2024-04-25T21:45:04.267Z,100.00
2024-04-25T21:47:32.404Z,100.00
2024-04-25T21:50:00.083Z,100.00
2024-04-25T21:52:27.644Z,100.00
2024-04-25T21:54:54.860Z,100.00
2024-04-25T21:57:24.298Z,100.00
2024-04-25T21:59:51.579Z,100.00
2024-04-25T22:02:19.387Z,100.00
2024-04-25T22:04:46.759Z,100.00
2024-04-25T22:07:14.624Z,100.00
2024-04-25T22:09:42.070Z,100.00
2024-04-25T22:12:12.414Z,100.00
2024-04-25T22:14:40.810Z,100.00
2024-04-25T22:17:10.883Z,100.00
2024-04-25T22:19:38.977Z,100.00
2024-04-25T22:22:06.307Z,100.00
2024-04-25T22:24:33.610Z,100.00
2024-04-25T22:27:01.481Z,100.00
2024-04-25T22:29:29.557Z,100.00
2024-04-25T22:31:56.754Z,100.00
2024-04-25T22:34:24.866Z,100.00
2024-04-25T22:36:52.270Z,100.00
2024-04-25T22:39:19.997Z,100.00
2024-04-25T22:41:47.657Z,100.00
2024-04-25T22:44:15.422Z,100.00
2024-04-25T22:46:42.946Z,100.00
2024-04-25T22:49:10.631Z,100.00
2024-04-25T22:51:41.753Z,100.00
2024-04-25T22:54:09.430Z,100.00
2024-04-25T22:56:36.732Z,100.00
2024-04-25T22:59:04.545Z,100.00
2024-04-25T23:01:32.649Z,100.00
2024-04-25T23:04:01.182Z,100.00
2024-04-25T23:06:28.700Z,100.00
2024-04-25T23:08:56.315Z,100.00
2024-04-25T23:11:23.603Z,100.00
2024-04-25T23:13:52.802Z,100.00
2024-04-25T23:16:20.301Z,100.00
2024-04-25T23:18:47.804Z,100.00
2024-04-25T23:21:15.182Z,100.00
2024-04-25T23:23:42.722Z,100.00
2024-04-25T23:26:10.142Z,100.00
2024-04-25T23:28:37.299Z,100.00
2024-04-25T23:31:04.803Z,100.00
2024-04-25T23:33:32.186Z,100.00
2024-04-25T23:36:03.827Z,100.00
2024-04-25T23:38:31.146Z,100.00
2024-04-25T23:40:58.392Z,100.00
2024-04-25T23:43:26.142Z,100.00
2024-04-25T23:45:53.601Z,100.00
2024-04-25T23:48:21.790Z,100.00
2024-04-25T23:50:50.588Z,100.00
2024-04-25T23:53:18.795Z,100.00
2024-04-25T23:55:45.984Z,100.00
2024-04-25T23:58:13.505Z,100.00
